Sabine Pass, Texas
Current Conditions -  °F | °C
As of 3:53 AM on Sunday 23 Nov 2014 (Local Time) from KBPT Reporting Station
Light Rain Light Rain  
Wind Chill: 62°   Ceiling: 10000
Heat Index: 62°   Visibility: 10mi
Dew Point: 60°   Wind: 18mph
Humidity: 93%   Direction: 60°ENE
Pressure: 29.57"   Gusts: 24mph
Location:  29.73°N, 93.89°W
Report Text: KBPT 230953Z AUTO 06016G21KT 10SM -RA BKN100 OVC120 17/16 A2957 RMK AO2 PRESFR SLP013 P0012 T01670156
Loading
Personal Weather Stations






























Interactive Weather Map New forecast layout! Learn more

10-Day Weather Forecast

Advertisements
Track Severe Weather on mobile